createdAt,value
2023-11-15T00:00:26.557Z,8.77
2023-11-15T00:03:28.577Z,11.13
2023-11-15T00:06:31.175Z,12.18
2023-11-15T00:09:34.215Z,11.95
2023-11-15T00:12:36.098Z,8.77
2023-11-15T00:15:37.937Z,12.60
2023-11-15T00:18:39.834Z,8.43
2023-11-15T00:21:42.087Z,11.20
2023-11-15T00:24:45.071Z,9.48
2023-11-15T00:27:46.867Z,11.07
2023-11-15T00:30:48.562Z,11.30
2023-11-15T00:33:50.435Z,16.42
2023-11-15T00:36:52.372Z,10.63
2023-11-15T00:39:54.901Z,11.27
2023-11-15T00:42:57.635Z,10.63
2023-11-15T00:45:59.870Z,9.57
2023-11-15T00:49:01.917Z,10.75
2023-11-15T00:52:03.765Z,12.80
2023-11-15T00:55:06.139Z,13.98
2023-11-15T00:58:10.469Z,12.20
2023-11-15T01:01:12.603Z,15.57
2023-11-15T01:04:14.667Z,14.00
2023-11-15T01:07:16.477Z,12.82
2023-11-15T01:10:20.092Z,16.75
2023-11-15T01:13:22.515Z,12.30
2023-11-15T01:16:25.265Z,14.25
2023-11-15T01:19:27.160Z,14.82
2023-11-15T01:22:29.054Z,13.00
2023-11-15T01:25:32.211Z,12.27
2023-11-15T01:28:34.099Z,11.30
2023-11-15T01:31:36.696Z,13.20
2023-11-15T01:34:38.459Z,13.35
2023-11-15T01:37:40.322Z,11.98
2023-11-15T01:40:42.116Z,10.70
2023-11-15T01:43:43.871Z,11.70
2023-11-15T01:46:46.968Z,13.82
2023-11-15T01:49:48.751Z,11.43
2023-11-15T01:52:50.871Z,8.93
2023-11-15T01:55:53.188Z,11.23
2023-11-15T01:58:55.193Z,13.87
2023-11-15T02:01:57.390Z,10.68
2023-11-15T02:04:59.227Z,9.60
2023-11-15T02:08:01.096Z,10.35
2023-11-15T02:11:03.050Z,9.60
2023-11-15T02:14:04.970Z,8.83
2023-11-15T02:17:06.848Z,11.10
2023-11-15T02:20:09.633Z,10.75
2023-11-15T02:23:12.850Z,9.05
2023-11-15T02:26:14.804Z,9.60
2023-11-15T02:29:16.570Z,8.40
2023-11-15T02:32:18.333Z,9.30
2023-11-15T02:35:20.268Z,13.52
2023-11-15T02:38:22.067Z,9.13
2023-11-15T02:41:26.086Z,9.13
2023-11-15T02:44:27.906Z,10.63
2023-11-15T02:47:29.707Z,9.75
2023-11-15T02:50:32.141Z,8.85
2023-11-15T02:53:33.984Z,9.75
2023-11-15T02:56:35.802Z,10.20
2023-11-15T02:59:37.620Z,8.13
2023-11-15T03:02:39.859Z,10.13
2023-11-15T03:05:41.738Z,9.25
2023-11-15T03:08:43.634Z,10.57
2023-11-15T03:11:45.542Z,11.05
2023-11-15T03:14:47.493Z,11.10
2023-11-15T03:17:49.347Z,9.25
2023-11-15T03:20:51.210Z,10.35
2023-11-15T03:23:53.176Z,9.20
2023-11-15T03:26:55.734Z,10.48
2023-11-15T03:29:58.167Z,8.77
2023-11-15T03:33:00.016Z,10.82
2023-11-15T03:36:01.822Z,11.70
2023-11-15T03:39:03.719Z,11.05
2023-11-15T03:42:06.270Z,9.68
2023-11-15T03:45:10.599Z,7.83
2023-11-15T03:48:12.771Z,8.13
2023-11-15T03:51:14.584Z,8.35
2023-11-15T03:54:16.921Z,10.85
2023-11-15T03:57:18.854Z,8.25
2023-11-15T04:00:20.676Z,11.20
2023-11-15T04:03:23.648Z,11.07
2023-11-15T04:06:28.455Z,11.25
2023-11-15T04:09:31.983Z,12.27
2023-11-15T04:12:33.861Z,13.20
2023-11-15T04:15:35.701Z,14.03
2023-11-15T04:18:39.471Z,11.27
2023-11-15T04:21:41.341Z,16.65
2023-11-15T04:24:45.442Z,14.13
2023-11-15T04:27:47.509Z,12.25
2023-11-15T04:30:49.282Z,13.33
2023-11-15T04:33:51.809Z,12.93
2023-11-15T04:36:53.522Z,15.85
2023-11-15T04:39:55.289Z,15.30
2023-11-15T04:42:57.114Z,16.80
2023-11-15T04:45:58.931Z,14.13
2023-11-15T04:49:00.974Z,14.80
2023-11-15T04:52:02.744Z,12.77
2023-11-15T04:55:05.188Z,18.02
2023-11-15T04:58:07.111Z,16.73
2023-11-15T05:01:08.847Z,14.07
2023-11-15T05:04:10.818Z,11.95
2023-11-15T05:07:12.704Z,12.48
2023-11-15T05:10:14.534Z,13.20
2023-11-15T05:13:16.287Z,12.63
2023-11-15T05:16:18.548Z,10.43
2023-11-15T05:19:20.429Z,13.10
2023-11-15T05:22:22.186Z,13.18
2023-11-15T05:25:24.510Z,11.10
2023-11-15T05:28:27.037Z,11.82
2023-11-15T05:31:28.789Z,14.47
2023-11-15T05:34:30.808Z,8.85
2023-11-15T05:37:32.604Z,10.13
2023-11-15T05:40:34.436Z,10.45
2023-11-15T05:43:36.238Z,8.35
2023-11-15T05:46:38.005Z,9.07
2023-11-15T05:49:40.122Z,10.57
2023-11-15T05:52:42.211Z,11.68
2023-11-15T05:55:44.319Z,8.18
2023-11-15T05:58:47.093Z,8.98
2023-11-15T06:01:48.931Z,10.50
2023-11-15T06:04:53.140Z,8.18
2023-11-15T06:07:54.882Z,5.78
2023-11-15T06:10:56.600Z,5.78
2023-11-15T06:13:58.346Z,4.25
2023-11-15T06:17:00.106Z,3.33
2023-11-15T06:20:06.811Z,7.53
2023-11-15T06:23:10.101Z,4.88
2023-11-15T06:26:12.751Z,3.35
2023-11-15T06:29:14.660Z,6.43
2023-11-15T06:32:16.759Z,3.73
2023-11-15T06:35:21.238Z,11.73
2023-11-15T06:38:23.082Z,4.80
2023-11-15T06:41:24.903Z,5.43
2023-11-15T06:44:26.646Z,5.65
2023-11-15T06:47:30.099Z,4.87
2023-11-15T06:50:34.035Z,4.65
2023-11-15T06:53:36.293Z,6.05
2023-11-15T06:56:38.237Z,3.47
2023-11-15T06:59:40.914Z,4.72
2023-11-15T07:02:44.325Z,4.20
2023-11-15T07:05:51.155Z,5.57
2023-11-15T07:08:59.146Z,4.65
2023-11-15T07:12:08.021Z,3.05
2023-11-15T07:15:18.836Z,4.03
2023-11-15T07:18:28.249Z,4.87
2023-11-15T07:21:33.132Z,7.75
2023-11-15T07:24:42.341Z,6.72
2023-11-15T07:27:46.554Z,3.30
2023-11-15T07:30:49.856Z,5.25
2023-11-15T07:33:52.409Z,4.57
2023-11-15T07:37:00.218Z,4.88
2023-11-15T07:40:02.155Z,5.03
2023-11-15T07:43:06.926Z,7.55
2023-11-15T07:46:09.496Z,3.85
2023-11-15T07:49:14.507Z,9.77
2023-11-15T07:52:16.246Z,5.82
2023-11-15T07:55:19.569Z,5.65
2023-11-15T07:58:23.058Z,8.07
2023-11-15T08:01:25.020Z,7.38
2023-11-15T08:04:28.088Z,11.30
2023-11-15T08:07:29.974Z,8.45
2023-11-15T08:10:32.528Z,6.03
2023-11-15T08:13:34.731Z,7.72
2023-11-15T08:16:36.897Z,5.85
2023-11-15T08:19:39.313Z,7.97
2023-11-15T08:22:41.568Z,6.50
2023-11-15T08:25:48.550Z,6.30
2023-11-15T08:28:50.263Z,5.22
2023-11-15T08:31:52.183Z,4.30
2023-11-15T08:34:56.686Z,7.00
2023-11-15T08:38:05.254Z,5.57
2023-11-15T08:41:10.558Z,5.82
2023-11-15T08:44:13.522Z,6.28
2023-11-15T08:47:15.329Z,5.65
2023-11-15T08:50:17.213Z,3.80
2023-11-15T08:53:26.001Z,5.07
2023-11-15T08:56:27.886Z,6.57
2023-11-15T08:59:30.412Z,4.13
2023-11-15T09:02:32.714Z,2.70
2023-11-15T09:05:34.761Z,3.73
2023-11-15T09:08:39.695Z,2.88
2023-11-15T09:11:45.723Z,3.15
2023-11-15T09:14:50.227Z,3.90
2023-11-15T09:17:52.436Z,3.70
2023-11-15T09:20:54.366Z,3.63
2023-11-15T09:23:56.632Z,4.13
2023-11-15T09:26:58.428Z,3.67
2023-11-15T09:30:00.901Z,3.03
2023-11-15T09:33:06.750Z,2.88
2023-11-15T09:36:12.167Z,3.60
2023-11-15T09:39:17.921Z,4.18
2023-11-15T09:42:20.679Z,2.83
2023-11-15T09:45:25.646Z,2.45
2023-11-15T09:48:28.266Z,3.50
2023-11-15T09:51:35.501Z,1.90
2023-11-15T09:54:38.278Z,2.92
2023-11-15T09:57:44.973Z,3.78
2023-11-15T10:00:48.181Z,2.40
2023-11-15T10:03:50.750Z,1.55
2023-11-15T10:06:53.169Z,2.70
2023-11-15T10:09:55.591Z,1.25
2023-11-15T10:12:57.353Z,1.73
2023-11-15T10:15:59.192Z,1.30
2023-11-15T10:19:01.528Z,1.55
2023-11-15T10:22:05.397Z,1.17
2023-11-15T10:25:07.598Z,1.48
2023-11-15T10:28:10.875Z,1.58
2023-11-15T10:31:19.729Z,2.08
2023-11-15T10:34:27.347Z,1.20
2023-11-15T10:37:29.799Z,3.60
2023-11-15T10:40:32.065Z,1.10
2023-11-15T10:43:34.340Z,1.38
2023-11-15T10:46:40.295Z,1.15
2023-11-15T10:49:44.700Z,1.35
2023-11-15T10:52:47.181Z,1.20
2023-11-15T10:55:49.537Z,1.67
2023-11-15T10:58:52.304Z,0.98
2023-11-15T11:01:55.890Z,0.80
2023-11-15T11:04:58.386Z,3.33
2023-11-15T11:08:09.237Z,0.90
2023-11-15T11:11:11.001Z,0.80
2023-11-15T11:14:20.265Z,1.02
2023-11-15T11:17:35.180Z,0.60
2023-11-15T11:20:38.919Z,0.73
2023-11-15T11:24:00.707Z,0.97
2023-11-15T11:27:17.812Z,0.80
2023-11-15T11:30:24.954Z,2.03
2023-11-15T11:33:26.838Z,0.60
2023-11-15T11:36:51.569Z,1.33
2023-11-15T11:39:53.631Z,0.60
2023-11-15T11:43:13.559Z,1.17
2023-11-15T11:46:17.171Z,0.90
2023-11-15T11:49:19.525Z,1.73
2023-11-15T11:52:21.348Z,2.38
2023-11-15T11:55:23.506Z,0.70
2023-11-15T11:58:27.502Z,1.13
2023-11-15T12:01:29.394Z,1.25
2023-11-15T12:04:43.162Z,2.20
2023-11-15T12:07:45.795Z,0.40
2023-11-15T12:10:49.020Z,0.40
2023-11-15T12:13:52.344Z,0.40
2023-11-15T12:16:55.759Z,0.75
2023-11-15T12:19:57.828Z,1.33
2023-11-15T12:23:13.895Z,0.50
2023-11-15T12:26:16.220Z,0.40
2023-11-15T12:29:21.135Z,0.35
2023-11-15T12:35:25.537Z,0.52
2023-11-15T12:38:27.598Z,1.48
2023-11-15T12:41:29.438Z,1.00
2023-11-15T12:44:46.731Z,0.38
2023-11-15T12:47:48.819Z,0.57
2023-11-15T12:50:59.843Z,1.95
2023-11-15T12:54:05.024Z,0.60
2023-11-15T12:57:14.100Z,2.47
2023-11-15T13:00:34.668Z,0.68
2023-11-15T13:03:38.043Z,0.47
2023-11-15T13:06:40.418Z,0.70
2023-11-15T13:09:42.216Z,1.70
2023-11-15T13:12:44.055Z,2.37
2023-11-15T13:15:48.274Z,0.95
2023-11-15T13:18:52.738Z,3.47
2023-11-15T13:21:58.236Z,0.98
2023-11-15T13:25:02.545Z,0.30
2023-11-15T13:28:05.552Z,1.07
2023-11-15T13:31:11.546Z,0.60
2023-11-15T13:34:15.528Z,0.93
2023-11-15T13:37:17.467Z,0.40
2023-11-15T13:40:20.631Z,0.50
2023-11-15T13:43:23.566Z,0.97
2023-11-15T13:46:29.707Z,0.65
2023-11-15T13:49:31.835Z,0.68
2023-11-15T13:52:33.655Z,0.60
2023-11-15T13:55:35.476Z,0.52
2023-11-15T13:58:37.785Z,0.67
2023-11-15T14:01:40.385Z,2.85
2023-11-15T14:04:42.195Z,0.60
2023-11-15T14:07:44.323Z,0.95
2023-11-15T14:10:46.147Z,1.45
2023-11-15T14:13:48.832Z,6.00
2023-11-15T14:16:50.645Z,1.80
2023-11-15T14:19:52.397Z,1.17
2023-11-15T14:22:56.230Z,1.13
2023-11-15T14:25:59.166Z,0.73
2023-11-15T14:29:01.028Z,1.27
2023-11-15T14:32:03.281Z,5.97
2023-11-15T14:35:09.603Z,1.98
2023-11-15T14:38:11.490Z,5.78
2023-11-15T14:41:13.270Z,2.67
2023-11-15T14:44:15.101Z,3.57
2023-11-15T14:47:17.441Z,2.85
2023-11-15T14:50:19.658Z,1.90
2023-11-15T14:53:24.158Z,1.30
2023-11-15T14:56:28.737Z,1.33
2023-11-15T14:59:30.913Z,3.00
2023-11-15T15:02:32.722Z,3.25
2023-11-15T15:05:34.470Z,1.90
2023-11-15T15:08:38.319Z,1.10
2023-11-15T15:11:40.102Z,0.75
2023-11-15T15:14:42.694Z,0.80
2023-11-15T15:17:45.393Z,2.25
2023-11-15T15:20:47.346Z,1.20
2023-11-15T15:23:49.330Z,0.80
2023-11-15T15:26:51.398Z,1.58
2023-11-15T15:29:53.596Z,1.37
2023-11-15T15:32:55.404Z,2.78
2023-11-15T15:35:58.678Z,2.08
2023-11-15T15:39:01.116Z,2.08
2023-11-15T15:42:04.275Z,1.92
2023-11-15T15:45:08.043Z,1.97
2023-11-15T15:48:11.519Z,2.17
2023-11-15T15:51:15.080Z,1.55
2023-11-15T15:54:17.060Z,1.80
2023-11-15T15:57:20.285Z,9.55
2023-11-15T16:00:22.313Z,1.63
2023-11-15T16:03:24.615Z,1.33
2023-11-15T16:06:26.669Z,1.33
2023-11-15T16:09:28.922Z,4.97
2023-11-15T16:12:35.374Z,6.88
2023-11-15T16:15:40.479Z,1.73
2023-11-15T16:18:43.308Z,2.03
2023-11-15T16:21:45.284Z,2.70
2023-11-15T16:24:48.722Z,2.33
2023-11-15T16:27:51.197Z,4.18
2023-11-15T16:30:53.205Z,4.00
2023-11-15T16:33:55.993Z,2.25
2023-11-15T16:36:59.775Z,2.60
2023-11-15T16:40:01.703Z,2.28
2023-11-15T16:43:04.077Z,2.22
2023-11-15T16:46:08.886Z,1.63
2023-11-15T16:49:10.749Z,2.65
2023-11-15T16:52:12.521Z,3.42
2023-11-15T16:55:14.368Z,3.22
2023-11-15T16:58:16.810Z,3.05
2023-11-15T17:01:18.715Z,4.77
2023-11-15T17:04:20.536Z,2.22
2023-11-15T17:07:22.602Z,2.35
2023-11-15T17:10:24.678Z,1.80
2023-11-15T17:13:30.103Z,4.43
2023-11-15T17:16:32.649Z,4.50
2023-11-15T17:19:34.455Z,2.35
2023-11-15T17:22:36.845Z,3.95
2023-11-15T17:25:38.682Z,4.43
2023-11-15T17:28:44.182Z,2.95
2023-11-15T17:31:45.976Z,2.17
2023-11-15T17:34:48.049Z,3.25
2023-11-15T17:37:49.762Z,2.58
2023-11-15T17:40:51.618Z,4.22
2023-11-15T17:43:53.832Z,2.88
2023-11-15T17:46:55.903Z,4.10
2023-11-15T17:49:57.743Z,2.47
2023-11-15T17:52:59.514Z,2.65
2023-11-15T17:56:01.636Z,3.00
2023-11-15T17:59:04.596Z,2.20
2023-11-15T18:02:06.383Z,1.97
2023-11-15T18:05:09.380Z,2.03
2023-11-15T18:08:11.155Z,3.28
2023-11-15T18:11:13.772Z,2.35
2023-11-15T18:14:15.587Z,2.20
2023-11-15T18:17:17.470Z,2.93
2023-11-15T18:20:19.296Z,9.43
2023-11-15T18:23:21.924Z,4.25
2023-11-15T18:26:24.220Z,2.75
2023-11-15T18:29:26.058Z,3.63
2023-11-15T18:32:28.160Z,2.27
2023-11-15T18:35:30.224Z,2.05
2023-11-15T18:38:32.021Z,2.53
2023-11-15T18:41:34.019Z,2.80
2023-11-15T18:44:36.339Z,2.40
2023-11-15T18:47:40.458Z,1.77
2023-11-15T18:50:42.439Z,3.50
2023-11-15T18:53:44.434Z,2.97
2023-11-15T18:56:46.515Z,1.92
2023-11-15T18:59:48.722Z,3.70
2023-11-15T19:02:50.764Z,2.93
2023-11-15T19:05:54.430Z,1.88
2023-11-15T19:08:59.013Z,3.40
2023-11-15T19:12:01.918Z,2.03
2023-11-15T19:15:05.397Z,3.08
2023-11-15T19:18:09.799Z,3.90
2023-11-15T19:21:13.850Z,2.55
2023-11-15T19:24:16.665Z,3.30
2023-11-15T19:27:18.618Z,3.58
2023-11-15T19:30:21.124Z,2.40
2023-11-15T19:33:23.355Z,2.20
2023-11-15T19:36:25.381Z,2.20
2023-11-15T19:39:27.274Z,2.05
2023-11-15T19:42:31.306Z,4.70
2023-11-15T19:45:34.381Z,4.20
2023-11-15T19:48:36.838Z,3.60
2023-11-15T19:51:39.115Z,4.45
2023-11-15T19:54:41.189Z,3.22
2023-11-15T19:57:43.271Z,4.60
2023-11-15T20:00:45.605Z,4.32
2023-11-15T20:03:48.844Z,2.13
2023-11-15T20:06:51.088Z,2.22
2023-11-15T20:09:53.977Z,3.38
2023-11-15T20:12:56.073Z,2.72
2023-11-15T20:15:58.083Z,2.22
2023-11-15T20:19:00.098Z,1.53
2023-11-15T20:22:01.979Z,1.13
2023-11-15T20:25:04.577Z,5.05
2023-11-15T20:28:06.627Z,1.02
2023-11-15T20:31:09.477Z,1.95
2023-11-15T20:34:11.723Z,1.10
2023-11-15T20:37:13.809Z,2.42
2023-11-15T20:40:16.540Z,1.65
2023-11-15T20:43:18.908Z,3.10
2023-11-15T20:46:22.905Z,2.10
2023-11-15T20:49:25.091Z,1.60
2023-11-15T20:52:26.888Z,1.85
2023-11-15T20:55:29.454Z,1.83
2023-11-15T20:58:31.583Z,1.55
2023-11-15T21:01:33.330Z,4.57
2023-11-15T21:04:35.247Z,2.93
2023-11-15T21:07:37.240Z,3.15
2023-11-15T21:10:41.515Z,5.18
2023-11-15T21:13:43.392Z,2.67
2023-11-15T21:16:45.295Z,5.07
2023-11-15T21:19:47.141Z,2.17
2023-11-15T21:22:48.972Z,2.88
2023-11-15T21:25:50.753Z,2.28
2023-11-15T21:28:54.935Z,2.10
2023-11-15T21:31:57.142Z,2.92
2023-11-15T21:34:59.005Z,3.30
2023-11-15T21:38:04.296Z,4.10
2023-11-15T21:41:06.107Z,2.83
2023-11-15T21:44:08.006Z,2.92
2023-11-15T21:47:10.463Z,4.03
2023-11-15T21:50:16.046Z,2.70
2023-11-15T21:53:18.058Z,1.95
2023-11-15T21:56:19.915Z,3.72
2023-11-15T21:59:21.667Z,2.22
2023-11-15T22:02:23.587Z,8.65
2023-11-15T22:05:25.342Z,7.80
2023-11-15T22:08:28.991Z,3.17
2023-11-15T22:11:32.206Z,3.42
2023-11-15T22:14:33.959Z,4.93
2023-11-15T22:17:36.247Z,5.55
2023-11-15T22:20:38.070Z,5.60
2023-11-15T22:23:40.396Z,4.32
2023-11-15T22:26:42.295Z,2.22
2023-11-15T22:29:44.122Z,3.88
2023-11-15T22:32:45.996Z,3.00
2023-11-15T22:35:50.224Z,3.33
2023-11-15T22:38:52.761Z,3.30
2023-11-15T22:41:54.693Z,10.95
2023-11-15T22:44:56.633Z,5.28
2023-11-15T22:47:58.845Z,7.70
2023-11-15T22:51:00.714Z,2.00
2023-11-15T22:54:02.510Z,3.53
2023-11-15T22:57:04.408Z,5.32
2023-11-15T23:00:07.167Z,2.03
2023-11-15T23:03:12.331Z,2.30
2023-11-15T23:06:15.107Z,3.37
2023-11-15T23:09:17.304Z,3.50
2023-11-15T23:12:19.237Z,2.33
2023-11-15T23:15:22.318Z,2.42
2023-11-15T23:18:24.170Z,2.08
2023-11-15T23:21:26.071Z,2.40
2023-11-15T23:24:29.447Z,3.28
2023-11-15T23:27:31.381Z,2.75
2023-11-15T23:30:36.038Z,2.72
2023-11-15T23:33:38.288Z,2.97
2023-11-15T23:36:40.063Z,4.20
2023-11-15T23:39:42.103Z,5.95
2023-11-15T23:42:46.723Z,3.45
2023-11-15T23:45:49.994Z,4.13
2023-11-15T23:48:51.800Z,4.20
2023-11-15T23:51:53.620Z,2.57
2023-11-15T23:54:55.445Z,2.10
2023-11-15T23:58:04.305Z,3.75
